sensor_id;sensor_type;location;lat;lon;timestamp;P1;durP1;ratioP1;P2;durP2;ratioP2
1082;SDS011;530;51.448;7.238;2023-02-15T00:01:29;24.20;;;16.07;;
1082;SDS011;530;51.448;7.238;2023-02-15T00:03:55;24.17;;;16.77;;
1082;SDS011;530;51.448;7.238;2023-02-15T00:06:21;23.90;;;16.60;;
1082;SDS011;530;51.448;7.238;2023-02-15T00:08:47;20.87;;;16.33;;
1082;SDS011;530;51.448;7.238;2023-02-15T00:11:14;21.13;;;16.00;;
1082;SDS011;530;51.448;7.238;2023-02-15T00:13:41;23.07;;;16.30;;
1082;SDS011;530;51.448;7.238;2023-02-15T00:16:11;23.67;;;16.87;;
1082;SDS011;530;51.448;7.238;2023-02-15T00:18:38;19.93;;;15.77;;
1082;SDS011;530;51.448;7.238;2023-02-15T00:21:05;22.50;;;15.97;;
1082;SDS011;530;51.448;7.238;2023-02-15T00:23:32;21.30;;;16.13;;
1082;SDS011;530;51.448;7.238;2023-02-15T00:26:11;23.73;;;16.50;;
1082;SDS011;530;51.448;7.238;2023-02-15T00:28:37;24.73;;;16.03;;
1082;SDS011;530;51.448;7.238;2023-02-15T00:31:07;21.70;;;16.00;;
1082;SDS011;530;51.448;7.238;2023-02-15T00:33:37;22.90;;;15.57;;
1082;SDS011;530;51.448;7.238;2023-02-15T00:36:04;25.20;;;17.47;;
1082;SDS011;530;51.448;7.238;2023-02-15T00:38:33;26.60;;;17.30;;
1082;SDS011;530;51.448;7.238;2023-02-15T00:41:00;22.83;;;16.10;;
1082;SDS011;530;51.448;7.238;2023-02-15T00:43:28;22.27;;;16.90;;
1082;SDS011;530;51.448;7.238;2023-02-15T00:45:54;27.03;;;16.73;;
1082;SDS011;530;51.448;7.238;2023-02-15T00:48:21;25.77;;;16.67;;
1082;SDS011;530;51.448;7.238;2023-02-15T00:50:48;21.27;;;15.33;;
1082;SDS011;530;51.448;7.238;2023-02-15T00:53:15;24.47;;;16.50;;
1082;SDS011;530;51.448;7.238;2023-02-15T00:55:41;23.47;;;17.47;;
1082;SDS011;530;51.448;7.238;2023-02-15T00:58:09;25.43;;;16.97;;
1082;SDS011;530;51.448;7.238;2023-02-15T01:00:36;23.00;;;16.67;;
1082;SDS011;530;51.448;7.238;2023-02-15T01:03:03;24.50;;;17.97;;
1082;SDS011;530;51.448;7.238;2023-02-15T01:05:29;23.23;;;16.17;;
1082;SDS011;530;51.448;7.238;2023-02-15T01:07:56;22.97;;;16.53;;
1082;SDS011;530;51.448;7.238;2023-02-15T01:10:22;25.43;;;18.57;;
1082;SDS011;530;51.448;7.238;2023-02-15T01:12:48;21.97;;;16.43;;
1082;SDS011;530;51.448;7.238;2023-02-15T01:15:15;25.67;;;17.70;;
1082;SDS011;530;51.448;7.238;2023-02-15T01:17:41;22.50;;;17.27;;
1082;SDS011;530;51.448;7.238;2023-02-15T01:20:09;23.37;;;18.17;;
1082;SDS011;530;51.448;7.238;2023-02-15T01:22:35;24.77;;;16.57;;
1082;SDS011;530;51.448;7.238;2023-02-15T01:25:00;27.23;;;18.60;;
1082;SDS011;530;51.448;7.238;2023-02-15T01:27:26;24.67;;;17.80;;
1082;SDS011;530;51.448;7.238;2023-02-15T01:29:51;28.07;;;18.37;;
1082;SDS011;530;51.448;7.238;2023-02-15T01:32:17;26.23;;;18.20;;
1082;SDS011;530;51.448;7.238;2023-02-15T01:34:43;23.07;;;16.90;;
1082;SDS011;530;51.448;7.238;2023-02-15T01:37:08;24.33;;;16.70;;
1082;SDS011;530;51.448;7.238;2023-02-15T01:39:34;24.97;;;17.00;;
1082;SDS011;530;51.448;7.238;2023-02-15T01:42:00;24.83;;;16.70;;
1082;SDS011;530;51.448;7.238;2023-02-15T01:47:14;23.33;;;17.20;;
1082;SDS011;530;51.448;7.238;2023-02-15T01:49:45;24.10;;;18.20;;
1082;SDS011;530;51.448;7.238;2023-02-15T01:52:12;25.20;;;17.80;;
1082;SDS011;530;51.448;7.238;2023-02-15T01:54:41;23.20;;;16.23;;
1082;SDS011;530;51.448;7.238;2023-02-15T01:57:13;24.93;;;17.67;;
1082;SDS011;530;51.448;7.238;2023-02-15T01:59:43;26.90;;;18.70;;
1082;SDS011;530;51.448;7.238;2023-02-15T02:02:14;24.83;;;16.90;;
1082;SDS011;530;51.448;7.238;2023-02-15T02:04:49;23.53;;;17.00;;
1082;SDS011;530;51.448;7.238;2023-02-15T02:07:20;26.30;;;18.30;;
1082;SDS011;530;51.448;7.238;2023-02-15T02:09:48;29.87;;;18.80;;
1082;SDS011;530;51.448;7.238;2023-02-15T02:12:18;25.70;;;17.63;;
1082;SDS011;530;51.448;7.238;2023-02-15T02:14:44;24.00;;;17.53;;
1082;SDS011;530;51.448;7.238;2023-02-15T02:17:22;26.47;;;17.80;;
1082;SDS011;530;51.448;7.238;2023-02-15T02:41:22;24.00;;;16.93;;
1082;SDS011;530;51.448;7.238;2023-02-15T02:46:46;26.47;;;17.40;;
1082;SDS011;530;51.448;7.238;2023-02-15T02:49:15;26.50;;;19.33;;
1082;SDS011;530;51.448;7.238;2023-02-15T02:51:41;29.13;;;19.50;;
1082;SDS011;530;51.448;7.238;2023-02-15T02:54:06;25.23;;;18.60;;
1082;SDS011;530;51.448;7.238;2023-02-15T02:56:36;27.13;;;18.40;;
1082;SDS011;530;51.448;7.238;2023-02-15T02:59:17;26.43;;;17.40;;
1082;SDS011;530;51.448;7.238;2023-02-15T03:01:50;28.30;;;19.20;;
1082;SDS011;530;51.448;7.238;2023-02-15T03:04:25;28.07;;;17.93;;
1082;SDS011;530;51.448;7.238;2023-02-15T03:06:57;24.27;;;18.50;;
1082;SDS011;530;51.448;7.238;2023-02-15T03:09:51;26.70;;;18.00;;
1082;SDS011;530;51.448;7.238;2023-02-15T03:12:21;27.37;;;19.80;;
1082;SDS011;530;51.448;7.238;2023-02-15T03:14:56;29.00;;;19.23;;
1082;SDS011;530;51.448;7.238;2023-02-15T03:17:26;24.57;;;17.03;;
1082;SDS011;530;51.448;7.238;2023-02-15T03:19:54;27.37;;;19.47;;
1082;SDS011;530;51.448;7.238;2023-02-15T03:22:29;29.60;;;18.43;;
1082;SDS011;530;51.448;7.238;2023-02-15T03:25:06;28.43;;;19.27;;
1082;SDS011;530;51.448;7.238;2023-02-15T03:28:04;26.30;;;18.70;;
1082;SDS011;530;51.448;7.238;2023-02-15T03:30:32;25.87;;;18.47;;
1082;SDS011;530;51.448;7.238;2023-02-15T03:33:01;26.70;;;19.17;;
1082;SDS011;530;51.448;7.238;2023-02-15T03:35:31;29.00;;;20.10;;
1082;SDS011;530;51.448;7.238;2023-02-15T03:38:02;28.53;;;19.30;;
1082;SDS011;530;51.448;7.238;2023-02-15T03:40:32;30.37;;;20.10;;
1082;SDS011;530;51.448;7.238;2023-02-15T03:45:48;29.27;;;19.40;;
1082;SDS011;530;51.448;7.238;2023-02-15T03:49:03;29.97;;;19.67;;
1082;SDS011;530;51.448;7.238;2023-02-15T03:51:13;32.53;;;19.80;;
1082;SDS011;530;51.448;7.238;2023-02-15T03:54:09;29.17;;;18.87;;
1082;SDS011;530;51.448;7.238;2023-02-15T03:56:59;26.47;;;19.97;;
1082;SDS011;530;51.448;7.238;2023-02-15T03:59:45;28.53;;;19.23;;
1082;SDS011;530;51.448;7.238;2023-02-15T04:02:30;31.23;;;19.73;;
1082;SDS011;530;51.448;7.238;2023-02-15T04:05:18;28.63;;;18.87;;
1082;SDS011;530;51.448;7.238;2023-02-15T04:07:44;30.83;;;20.70;;
1082;SDS011;530;51.448;7.238;2023-02-15T04:10:10;29.23;;;19.93;;
1082;SDS011;530;51.448;7.238;2023-02-15T04:12:54;26.47;;;19.30;;
1082;SDS011;530;51.448;7.238;2023-02-15T04:15:20;27.97;;;20.40;;
1082;SDS011;530;51.448;7.238;2023-02-15T04:18:05;28.07;;;18.83;;
1082;SDS011;530;51.448;7.238;2023-02-15T04:20:30;25.27;;;18.27;;
1082;SDS011;530;51.448;7.238;2023-02-15T04:23:14;27.37;;;19.23;;
1082;SDS011;530;51.448;7.238;2023-02-15T04:25:59;28.13;;;19.50;;
1082;SDS011;530;51.448;7.238;2023-02-15T04:28:28;29.73;;;20.30;;
1082;SDS011;530;51.448;7.238;2023-02-15T04:30:54;28.63;;;19.60;;
1082;SDS011;530;51.448;7.238;2023-02-15T04:33:20;31.87;;;20.10;;
1082;SDS011;530;51.448;7.238;2023-02-15T04:35:46;30.97;;;19.60;;
1082;SDS011;530;51.448;7.238;2023-02-15T04:38:11;32.77;;;20.37;;
1082;SDS011;530;51.448;7.238;2023-02-15T04:40:37;31.10;;;20.17;;
1082;SDS011;530;51.448;7.238;2023-02-15T04:43:03;29.80;;;20.17;;
1082;SDS011;530;51.448;7.238;2023-02-15T04:45:28;28.37;;;19.20;;
1082;SDS011;530;51.448;7.238;2023-02-15T04:47:54;28.73;;;19.43;;
1082;SDS011;530;51.448;7.238;2023-02-15T04:50:20;26.53;;;19.03;;
1082;SDS011;530;51.448;7.238;2023-02-15T04:52:46;28.83;;;19.57;;
1082;SDS011;530;51.448;7.238;2023-02-15T04:55:11;27.97;;;19.53;;
1082;SDS011;530;51.448;7.238;2023-02-15T04:57:37;29.37;;;19.77;;
1082;SDS011;530;51.448;7.238;2023-02-15T05:00:03;27.77;;;19.30;;
1082;SDS011;530;51.448;7.238;2023-02-15T05:02:29;28.73;;;20.43;;
1082;SDS011;530;51.448;7.238;2023-02-15T05:04:55;29.20;;;19.63;;
1082;SDS011;530;51.448;7.238;2023-02-15T05:07:20;33.37;;;20.60;;
1082;SDS011;530;51.448;7.238;2023-02-15T05:09:46;29.63;;;20.67;;
1082;SDS011;530;51.448;7.238;2023-02-15T05:12:12;33.13;;;21.30;;
1082;SDS011;530;51.448;7.238;2023-02-15T05:14:37;29.47;;;20.20;;
1082;SDS011;530;51.448;7.238;2023-02-15T05:17:03;29.47;;;19.70;;
1082;SDS011;530;51.448;7.238;2023-02-15T05:19:30;32.50;;;20.07;;
1082;SDS011;530;51.448;7.238;2023-02-15T05:21:56;29.30;;;19.90;;
1082;SDS011;530;51.448;7.238;2023-02-15T05:24:21;29.40;;;20.00;;
1082;SDS011;530;51.448;7.238;2023-02-15T05:27:06;29.73;;;20.90;;
1082;SDS011;530;51.448;7.238;2023-02-15T05:29:51;29.57;;;20.27;;
1082;SDS011;530;51.448;7.238;2023-02-15T05:32:17;29.07;;;20.20;;
1082;SDS011;530;51.448;7.238;2023-02-15T05:34:42;26.60;;;19.40;;
1082;SDS011;530;51.448;7.238;2023-02-15T05:37:08;30.57;;;20.50;;
1082;SDS011;530;51.448;7.238;2023-02-15T05:39:34;31.37;;;20.43;;
1082;SDS011;530;51.448;7.238;2023-02-15T05:41:59;32.03;;;20.50;;
1082;SDS011;530;51.448;7.238;2023-02-15T05:44:25;30.27;;;20.47;;
1082;SDS011;530;51.448;7.238;2023-02-15T05:46:51;29.47;;;18.37;;
1082;SDS011;530;51.448;7.238;2023-02-15T05:49:17;33.57;;;19.30;;
1082;SDS011;530;51.448;7.238;2023-02-15T05:51:42;28.50;;;19.73;;
1082;SDS011;530;51.448;7.238;2023-02-15T05:54:08;33.90;;;20.90;;
1082;SDS011;530;51.448;7.238;2023-02-15T05:56:33;30.47;;;19.83;;
1082;SDS011;530;51.448;7.238;2023-02-15T05:58:59;34.13;;;21.40;;
1082;SDS011;530;51.448;7.238;2023-02-15T06:01:25;32.97;;;21.27;;
1082;SDS011;530;51.448;7.238;2023-02-15T06:03:50;32.40;;;20.23;;
1082;SDS011;530;51.448;7.238;2023-02-15T06:06:17;26.33;;;19.27;;
1082;SDS011;530;51.448;7.238;2023-02-15T06:08:43;32.00;;;19.83;;
1082;SDS011;530;51.448;7.238;2023-02-15T06:11:08;30.47;;;21.23;;
1082;SDS011;530;51.448;7.238;2023-02-15T06:13:34;36.03;;;20.10;;
1082;SDS011;530;51.448;7.238;2023-02-15T06:16:00;31.83;;;21.30;;
1082;SDS011;530;51.448;7.238;2023-02-15T06:18:26;32.57;;;20.90;;
1082;SDS011;530;51.448;7.238;2023-02-15T06:20:52;28.63;;;19.27;;
1082;SDS011;530;51.448;7.238;2023-02-15T06:23:18;28.77;;;18.90;;
1082;SDS011;530;51.448;7.238;2023-02-15T06:25:44;30.20;;;19.10;;
1082;SDS011;530;51.448;7.238;2023-02-15T06:28:10;30.20;;;19.40;;
1082;SDS011;530;51.448;7.238;2023-02-15T06:30:36;29.10;;;19.50;;
1082;SDS011;530;51.448;7.238;2023-02-15T06:33:02;32.37;;;19.87;;
1082;SDS011;530;51.448;7.238;2023-02-15T06:35:28;30.33;;;19.77;;
1082;SDS011;530;51.448;7.238;2023-02-15T06:37:53;27.57;;;17.80;;
1082;SDS011;530;51.448;7.238;2023-02-15T06:40:19;30.03;;;19.40;;
1082;SDS011;530;51.448;7.238;2023-02-15T06:42:45;26.13;;;19.40;;
1082;SDS011;530;51.448;7.238;2023-02-15T06:45:10;28.73;;;19.00;;
1082;SDS011;530;51.448;7.238;2023-02-15T06:47:36;32.50;;;19.73;;
1082;SDS011;530;51.448;7.238;2023-02-15T06:50:03;30.30;;;21.23;;
1082;SDS011;530;51.448;7.238;2023-02-15T06:52:30;32.10;;;19.50;;
1082;SDS011;530;51.448;7.238;2023-02-15T06:54:56;28.70;;;19.07;;
1082;SDS011;530;51.448;7.238;2023-02-15T06:57:22;27.83;;;20.70;;
1082;SDS011;530;51.448;7.238;2023-02-15T06:59:47;28.43;;;20.20;;
1082;SDS011;530;51.448;7.238;2023-02-15T07:02:13;28.53;;;19.20;;
1082;SDS011;530;51.448;7.238;2023-02-15T07:04:39;24.93;;;17.47;;
1082;SDS011;530;51.448;7.238;2023-02-15T07:07:08;30.03;;;19.00;;
1082;SDS011;530;51.448;7.238;2023-02-15T07:09:34;31.83;;;18.97;;
1082;SDS011;530;51.448;7.238;2023-02-15T07:12:00;30.77;;;20.07;;
1082;SDS011;530;51.448;7.238;2023-02-15T07:14:44;31.53;;;19.50;;
1082;SDS011;530;51.448;7.238;2023-02-15T07:17:10;28.90;;;20.07;;
1082;SDS011;530;51.448;7.238;2023-02-15T07:19:35;27.47;;;18.07;;
1082;SDS011;530;51.448;7.238;2023-02-15T07:22:01;29.97;;;20.00;;
1082;SDS011;530;51.448;7.238;2023-02-15T07:24:28;29.77;;;20.37;;
1082;SDS011;530;51.448;7.238;2023-02-15T07:26:54;31.07;;;19.33;;
1082;SDS011;530;51.448;7.238;2023-02-15T07:29:19;27.10;;;17.53;;
1082;SDS011;530;51.448;7.238;2023-02-15T07:31:45;29.30;;;19.73;;
1082;SDS011;530;51.448;7.238;2023-02-15T07:34:11;27.97;;;17.93;;
1082;SDS011;530;51.448;7.238;2023-02-15T07:36:37;28.80;;;19.47;;
1082;SDS011;530;51.448;7.238;2023-02-15T07:39:02;28.93;;;19.67;;
1082;SDS011;530;51.448;7.238;2023-02-15T07:41:28;34.60;;;20.87;;
1082;SDS011;530;51.448;7.238;2023-02-15T07:43:54;29.37;;;18.60;;
1082;SDS011;530;51.448;7.238;2023-02-15T07:46:20;28.07;;;19.07;;
1082;SDS011;530;51.448;7.238;2023-02-15T07:48:46;26.67;;;19.17;;
1082;SDS011;530;51.448;7.238;2023-02-15T07:51:12;28.20;;;18.10;;
1082;SDS011;530;51.448;7.238;2023-02-15T07:53:39;24.90;;;17.43;;
1082;SDS011;530;51.448;7.238;2023-02-15T07:56:12;28.03;;;18.33;;
1082;SDS011;530;51.448;7.238;2023-02-15T07:58:38;25.70;;;17.17;;
1082;SDS011;530;51.448;7.238;2023-02-15T08:01:26;24.87;;;16.33;;
1082;SDS011;530;51.448;7.238;2023-02-15T08:04:02;26.23;;;15.83;;
1082;SDS011;530;51.448;7.238;2023-02-15T08:06:30;30.63;;;17.63;;
1082;SDS011;530;51.448;7.238;2023-02-15T08:08:57;23.80;;;16.43;;
1082;SDS011;530;51.448;7.238;2023-02-15T08:11:24;23.53;;;16.23;;
1082;SDS011;530;51.448;7.238;2023-02-15T08:13:52;24.13;;;16.47;;
1082;SDS011;530;51.448;7.238;2023-02-15T08:16:41;25.63;;;16.10;;
1082;SDS011;530;51.448;7.238;2023-02-15T08:24:26;28.03;;;17.97;;
1082;SDS011;530;51.448;7.238;2023-02-15T08:26:55;23.13;;;15.90;;
1082;SDS011;530;51.448;7.238;2023-02-15T08:29:25;23.40;;;17.00;;
1082;SDS011;530;51.448;7.238;2023-02-15T08:31:53;23.50;;;15.63;;
1082;SDS011;530;51.448;7.238;2023-02-15T08:34:27;22.53;;;16.90;;
1082;SDS011;530;51.448;7.238;2023-02-15T08:36:53;24.90;;;17.50;;
1082;SDS011;530;51.448;7.238;2023-02-15T08:39:19;23.77;;;16.70;;
1082;SDS011;530;51.448;7.238;2023-02-15T08:41:46;22.70;;;15.00;;
1082;SDS011;530;51.448;7.238;2023-02-15T08:44:16;22.13;;;15.77;;
1082;SDS011;530;51.448;7.238;2023-02-15T08:46:44;23.30;;;16.50;;
1082;SDS011;530;51.448;7.238;2023-02-15T08:49:12;23.57;;;15.80;;
1082;SDS011;530;51.448;7.238;2023-02-15T08:51:46;22.60;;;16.37;;
1082;SDS011;530;51.448;7.238;2023-02-15T08:54:13;18.50;;;15.30;;
1082;SDS011;530;51.448;7.238;2023-02-15T08:56:41;19.03;;;13.70;;
1082;SDS011;530;51.448;7.238;2023-02-15T08:59:26;26.57;;;16.23;;
1082;SDS011;530;51.448;7.238;2023-02-15T09:01:52;24.27;;;16.50;;
1082;SDS011;530;51.448;7.238;2023-02-15T09:04:19;23.03;;;16.70;;
1082;SDS011;530;51.448;7.238;2023-02-15T09:06:46;24.50;;;16.07;;
1082;SDS011;530;51.448;7.238;2023-02-15T09:09:13;23.73;;;14.43;;
1082;SDS011;530;51.448;7.238;2023-02-15T09:11:40;20.33;;;14.63;;
1082;SDS011;530;51.448;7.238;2023-02-15T09:14:09;21.13;;;14.70;;
1082;SDS011;530;51.448;7.238;2023-02-15T09:16:41;21.13;;;15.17;;
1082;SDS011;530;51.448;7.238;2023-02-15T09:19:11;22.53;;;15.40;;
1082;SDS011;530;51.448;7.238;2023-02-15T09:21:37;20.90;;;13.97;;
1082;SDS011;530;51.448;7.238;2023-02-15T09:24:04;18.40;;;13.77;;
1082;SDS011;530;51.448;7.238;2023-02-15T09:26:34;18.30;;;13.43;;
1082;SDS011;530;51.448;7.238;2023-02-15T09:29:02;19.27;;;14.40;;
1082;SDS011;530;51.448;7.238;2023-02-15T09:31:30;18.03;;;13.67;;
1082;SDS011;530;51.448;7.238;2023-02-15T09:33:57;17.70;;;13.70;;
1082;SDS011;530;51.448;7.238;2023-02-15T09:36:30;18.87;;;14.10;;
1082;SDS011;530;51.448;7.238;2023-02-15T09:53:16;18.83;;;14.23;;
1082;SDS011;530;51.448;7.238;2023-02-15T10:01:31;18.60;;;12.97;;
1082;SDS011;530;51.448;7.238;2023-02-15T10:23:25;15.60;;;12.63;;
1082;SDS011;530;51.448;7.238;2023-02-15T10:28:49;17.10;;;13.07;;
1082;SDS011;530;51.448;7.238;2023-02-15T10:31:24;16.40;;;12.10;;
1082;SDS011;530;51.448;7.238;2023-02-15T10:53:19;15.40;;;12.73;;
1082;SDS011;530;51.448;7.238;2023-02-15T10:56:12;19.00;;;13.63;;
1082;SDS011;530;51.448;7.238;2023-02-15T10:59:05;14.57;;;12.17;;
1082;SDS011;530;51.448;7.238;2023-02-15T11:02:03;18.33;;;12.73;;
1082;SDS011;530;51.448;7.238;2023-02-15T11:07:38;14.90;;;11.70;;
1082;SDS011;530;51.448;7.238;2023-02-15T11:10:23;16.50;;;12.13;;
1082;SDS011;530;51.448;7.238;2023-02-15T11:12:50;14.57;;;12.30;;
1082;SDS011;530;51.448;7.238;2023-02-15T11:15:19;16.90;;;11.57;;
1082;SDS011;530;51.448;7.238;2023-02-15T11:18:10;14.20;;;11.57;;
1082;SDS011;530;51.448;7.238;2023-02-15T11:21:04;14.40;;;11.30;;
1082;SDS011;530;51.448;7.238;2023-02-15T11:23:35;15.73;;;12.10;;
1082;SDS011;530;51.448;7.238;2023-02-15T11:26:09;17.27;;;11.87;;
1082;SDS011;530;51.448;7.238;2023-02-15T11:28:42;16.37;;;11.60;;
1082;SDS011;530;51.448;7.238;2023-02-15T11:31:19;11.33;;;10.03;;
1082;SDS011;530;51.448;7.238;2023-02-15T11:34:06;16.13;;;11.27;;
1082;SDS011;530;51.448;7.238;2023-02-15T11:36:41;14.37;;;10.33;;
1082;SDS011;530;51.448;7.238;2023-02-15T11:39:10;13.40;;;9.83;;
1082;SDS011;530;51.448;7.238;2023-02-15T11:41:40;15.23;;;9.77;;
1082;SDS011;530;51.448;7.238;2023-02-15T11:44:14;10.87;;;9.57;;
1082;SDS011;530;51.448;7.238;2023-02-15T11:46:48;11.97;;;9.60;;
1082;SDS011;530;51.448;7.238;2023-02-15T11:49:26;11.67;;;9.67;;
1082;SDS011;530;51.448;7.238;2023-02-15T11:51:57;13.90;;;9.23;;
1082;SDS011;530;51.448;7.238;2023-02-15T11:54:28;12.90;;;9.50;;
1082;SDS011;530;51.448;7.238;2023-02-15T11:56:58;12.57;;;8.40;;
1082;SDS011;530;51.448;7.238;2023-02-15T11:59:32;11.20;;;8.77;;
1082;SDS011;530;51.448;7.238;2023-02-15T12:02:01;11.40;;;9.67;;
1082;SDS011;530;51.448;7.238;2023-02-15T12:09:49;12.60;;;9.00;;
1082;SDS011;530;51.448;7.238;2023-02-15T12:12:37;12.23;;;9.10;;
1082;SDS011;530;51.448;7.238;2023-02-15T12:15:06;15.20;;;9.57;;
1082;SDS011;530;51.448;7.238;2023-02-15T12:17:50;13.87;;;10.00;;
1082;SDS011;530;51.448;7.238;2023-02-15T12:23:26;12.53;;;8.80;;
1082;SDS011;530;51.448;7.238;2023-02-15T12:25:40;12.03;;;9.40;;
1082;SDS011;530;51.448;7.238;2023-02-15T12:28:32;11.20;;;8.03;;
1082;SDS011;530;51.448;7.238;2023-02-15T12:33:53;10.90;;;8.40;;
1082;SDS011;530;51.448;7.238;2023-02-15T12:36:24;10.10;;;8.40;;
1082;SDS011;530;51.448;7.238;2023-02-15T12:41:38;15.40;;;11.67;;
1082;SDS011;530;51.448;7.238;2023-02-15T12:44:23;18.40;;;15.70;;
1082;SDS011;530;51.448;7.238;2023-02-15T12:49:43;11.37;;;7.87;;
1082;SDS011;530;51.448;7.238;2023-02-15T12:54:45;12.57;;;8.77;;
1082;SDS011;530;51.448;7.238;2023-02-15T13:00:06;10.50;;;8.43;;
1082;SDS011;530;51.448;7.238;2023-02-15T13:10:40;13.07;;;8.37;;
1082;SDS011;530;51.448;7.238;2023-02-15T13:13:19;11.63;;;8.83;;
1082;SDS011;530;51.448;7.238;2023-02-15T13:15:56;12.27;;;9.17;;
1082;SDS011;530;51.448;7.238;2023-02-15T13:18:29;10.00;;;8.63;;
1082;SDS011;530;51.448;7.238;2023-02-15T13:21:13;11.90;;;8.50;;
1082;SDS011;530;51.448;7.238;2023-02-15T13:23:51;11.53;;;8.67;;
1082;SDS011;530;51.448;7.238;2023-02-15T13:26:22;12.97;;;9.90;;
1082;SDS011;530;51.448;7.238;2023-02-15T13:28:52;12.80;;;9.90;;
1082;SDS011;530;51.448;7.238;2023-02-15T13:31:22;14.47;;;9.87;;
1082;SDS011;530;51.448;7.238;2023-02-15T13:34:11;12.93;;;9.50;;
1082;SDS011;530;51.448;7.238;2023-02-15T13:39:20;12.03;;;8.23;;
1082;SDS011;530;51.448;7.238;2023-02-15T13:44:57;13.33;;;8.63;;
1082;SDS011;530;51.448;7.238;2023-02-15T13:50:44;16.30;;;8.93;;
1082;SDS011;530;51.448;7.238;2023-02-15T13:56:20;11.33;;;8.90;;
1082;SDS011;530;51.448;7.238;2023-02-15T14:10:29;14.93;;;10.07;;
1082;SDS011;530;51.448;7.238;2023-02-15T14:20:59;15.60;;;9.93;;
1082;SDS011;530;51.448;7.238;2023-02-15T14:29:25;15.33;;;10.40;;
1082;SDS011;530;51.448;7.238;2023-02-15T14:32:05;13.13;;;10.00;;
1082;SDS011;530;51.448;7.238;2023-02-15T14:34:41;17.00;;;11.13;;
1082;SDS011;530;51.448;7.238;2023-02-15T14:37:31;13.90;;;10.83;;
1082;SDS011;530;51.448;7.238;2023-02-15T14:42:57;13.23;;;9.50;;
1082;SDS011;530;51.448;7.238;2023-02-15T14:45:31;14.13;;;10.47;;
1082;SDS011;530;51.448;7.238;2023-02-15T14:50:46;16.93;;;10.57;;
1082;SDS011;530;51.448;7.238;2023-02-15T14:53:16;15.40;;;9.80;;
1082;SDS011;530;51.448;7.238;2023-02-15T14:58:38;14.20;;;9.40;;
1082;SDS011;530;51.448;7.238;2023-02-15T15:01:25;13.13;;;9.53;;
1082;SDS011;530;51.448;7.238;2023-02-15T15:03:59;15.73;;;9.80;;
1082;SDS011;530;51.448;7.238;2023-02-15T15:06:30;17.30;;;10.90;;
1082;SDS011;530;51.448;7.238;2023-02-15T15:09:00;17.70;;;10.67;;
1082;SDS011;530;51.448;7.238;2023-02-15T15:11:39;14.17;;;10.80;;
1082;SDS011;530;51.448;7.238;2023-02-15T15:14:07;12.33;;;9.13;;
1082;SDS011;530;51.448;7.238;2023-02-15T15:19:11;12.47;;;8.50;;
1082;SDS011;530;51.448;7.238;2023-02-15T15:49:31;12.67;;;8.87;;
1082;SDS011;530;51.448;7.238;2023-02-15T15:52:20;12.47;;;8.83;;
1082;SDS011;530;51.448;7.238;2023-02-15T15:54:46;13.30;;;8.67;;
1082;SDS011;530;51.448;7.238;2023-02-15T15:57:37;11.90;;;8.90;;
1082;SDS011;530;51.448;7.238;2023-02-15T16:00:17;11.93;;;8.03;;
1082;SDS011;530;51.448;7.238;2023-02-15T16:03:03;12.33;;;8.93;;
1082;SDS011;530;51.448;7.238;2023-02-15T16:05:36;12.43;;;8.40;;
1082;SDS011;530;51.448;7.238;2023-02-15T16:08:03;13.73;;;8.90;;
1082;SDS011;530;51.448;7.238;2023-02-15T16:10:29;11.70;;;8.60;;
1082;SDS011;530;51.448;7.238;2023-02-15T16:12:59;13.00;;;8.53;;
1082;SDS011;530;51.448;7.238;2023-02-15T16:15:45;10.97;;;8.40;;
1082;SDS011;530;51.448;7.238;2023-02-15T16:18:17;11.90;;;8.63;;
1082;SDS011;530;51.448;7.238;2023-02-15T16:20:50;12.17;;;8.10;;
1082;SDS011;530;51.448;7.238;2023-02-15T16:28:56;14.93;;;9.53;;
1082;SDS011;530;51.448;7.238;2023-02-15T16:31:23;14.50;;;9.73;;
1082;SDS011;530;51.448;7.238;2023-02-15T16:33:51;13.73;;;8.70;;
1082;SDS011;530;51.448;7.238;2023-02-15T16:36:25;18.13;;;9.13;;
1082;SDS011;530;51.448;7.238;2023-02-15T16:43:52;14.57;;;9.00;;
1082;SDS011;530;51.448;7.238;2023-02-15T16:46:25;13.30;;;9.00;;
1082;SDS011;530;51.448;7.238;2023-02-15T16:48:56;13.20;;;9.60;;
1082;SDS011;530;51.448;7.238;2023-02-15T16:51:29;13.33;;;9.87;;
1082;SDS011;530;51.448;7.238;2023-02-15T16:54:01;11.70;;;10.03;;
1082;SDS011;530;51.448;7.238;2023-02-15T16:56:32;12.10;;;8.60;;
1082;SDS011;530;51.448;7.238;2023-02-15T16:58:58;14.13;;;9.90;;
1082;SDS011;530;51.448;7.238;2023-02-15T17:01:29;13.80;;;9.83;;
1082;SDS011;530;51.448;7.238;2023-02-15T17:09:29;15.00;;;11.30;;
1082;SDS011;530;51.448;7.238;2023-02-15T17:11:55;15.30;;;10.97;;
1082;SDS011;530;51.448;7.238;2023-02-15T17:14:31;15.60;;;11.87;;
1082;SDS011;530;51.448;7.238;2023-02-15T17:20:11;13.97;;;10.07;;
1082;SDS011;530;51.448;7.238;2023-02-15T17:22:25;15.30;;;11.60;;
1082;SDS011;530;51.448;7.238;2023-02-15T17:24:58;14.37;;;11.13;;
1082;SDS011;530;51.448;7.238;2023-02-15T17:27:26;16.77;;;11.53;;
1082;SDS011;530;51.448;7.238;2023-02-15T17:29:57;15.00;;;11.13;;
1082;SDS011;530;51.448;7.238;2023-02-15T17:32:30;14.67;;;11.20;;
1082;SDS011;530;51.448;7.238;2023-02-15T17:35:01;14.47;;;10.80;;
1082;SDS011;530;51.448;7.238;2023-02-15T17:42:53;16.97;;;12.23;;
1082;SDS011;530;51.448;7.238;2023-02-15T17:45:20;17.10;;;11.60;;
1082;SDS011;530;51.448;7.238;2023-02-15T17:47:49;19.40;;;12.93;;
1082;SDS011;530;51.448;7.238;2023-02-15T17:50:19;17.20;;;11.90;;
1082;SDS011;530;51.448;7.238;2023-02-15T17:52:47;16.77;;;13.07;;
1082;SDS011;530;51.448;7.238;2023-02-15T17:55:16;17.83;;;12.33;;
1082;SDS011;530;51.448;7.238;2023-02-15T17:58:03;18.10;;;12.67;;
1082;SDS011;530;51.448;7.238;2023-02-15T18:00:34;21.60;;;17.27;;
1082;SDS011;530;51.448;7.238;2023-02-15T18:03:21;19.83;;;14.83;;
1082;SDS011;530;51.448;7.238;2023-02-15T18:06:06;19.97;;;14.40;;
1082;SDS011;530;51.448;7.238;2023-02-15T18:08:51;19.73;;;14.53;;
1082;SDS011;530;51.448;7.238;2023-02-15T18:11:35;22.10;;;16.33;;
1082;SDS011;530;51.448;7.238;2023-02-15T18:14:02;31.30;;;20.70;;
1082;SDS011;530;51.448;7.238;2023-02-15T18:16:33;17.77;;;12.87;;
1082;SDS011;530;51.448;7.238;2023-02-15T18:19:04;17.43;;;12.50;;
1082;SDS011;530;51.448;7.238;2023-02-15T18:21:34;16.10;;;12.90;;
1082;SDS011;530;51.448;7.238;2023-02-15T18:23:59;24.23;;;16.53;;
1082;SDS011;530;51.448;7.238;2023-02-15T18:26:26;16.40;;;12.67;;
1082;SDS011;530;51.448;7.238;2023-02-15T18:28:52;19.63;;;12.97;;
1082;SDS011;530;51.448;7.238;2023-02-15T18:31:18;17.67;;;13.30;;
1082;SDS011;530;51.448;7.238;2023-02-15T18:33:55;21.57;;;12.40;;
1082;SDS011;530;51.448;7.238;2023-02-15T18:36:25;16.40;;;12.73;;
1082;SDS011;530;51.448;7.238;2023-02-15T18:38:54;16.67;;;12.77;;
1082;SDS011;530;51.448;7.238;2023-02-15T18:41:23;17.77;;;13.07;;
1082;SDS011;530;51.448;7.238;2023-02-15T18:43:49;17.80;;;13.93;;
1082;SDS011;530;51.448;7.238;2023-02-15T18:46:16;19.80;;;14.50;;
1082;SDS011;530;51.448;7.238;2023-02-15T18:48:42;18.37;;;13.33;;
1082;SDS011;530;51.448;7.238;2023-02-15T18:51:17;19.10;;;13.13;;
1082;SDS011;530;51.448;7.238;2023-02-15T18:53:45;17.03;;;13.90;;
1082;SDS011;530;51.448;7.238;2023-02-15T18:56:15;19.53;;;14.53;;
1082;SDS011;530;51.448;7.238;2023-02-15T18:58:44;19.17;;;14.10;;
1082;SDS011;530;51.448;7.238;2023-02-15T19:01:15;18.70;;;14.57;;
1082;SDS011;530;51.448;7.238;2023-02-15T19:03:46;17.90;;;13.37;;
1082;SDS011;530;51.448;7.238;2023-02-15T19:06:14;17.50;;;13.40;;
1082;SDS011;530;51.448;7.238;2023-02-15T19:08:43;16.90;;;12.97;;
1082;SDS011;530;51.448;7.238;2023-02-15T19:11:14;18.63;;;14.00;;
1082;SDS011;530;51.448;7.238;2023-02-15T19:13:47;19.20;;;14.50;;
1082;SDS011;530;51.448;7.238;2023-02-15T19:16:34;18.60;;;13.83;;